createdAt,value
2018-07-27T00:01:42.893Z,84
2018-07-27T00:06:42.828Z,84.3
2018-07-27T00:11:42.842Z,85
2018-07-27T00:16:42.875Z,83.4
2018-07-27T00:21:42.919Z,83.1
2018-07-27T00:26:42.954Z,82.3
2018-07-27T00:31:42.761Z,82.3
2018-07-27T00:36:42.932Z,82.2
2018-07-27T00:41:54.400Z,82.2
2018-07-27T00:46:54.245Z,83.4
2018-07-27T00:51:54.143Z,81.8
2018-07-27T00:56:54.202Z,81.5
2018-07-27T01:01:54.192Z,82.1
2018-07-27T01:06:54.188Z,82.5
2018-07-27T01:11:54.321Z,82.7
2018-07-27T01:16:56.210Z,82.6
2018-07-27T01:21:55.940Z,82.6
2018-07-27T01:27:08.418Z,84.3
2018-07-27T01:32:08.257Z,83.7
2018-07-27T01:37:08.325Z,84.4
2018-07-27T01:42:08.154Z,84.1
2018-07-27T01:47:08.161Z,84.7
2018-07-27T01:52:08.312Z,86.4
2018-07-27T01:57:08.181Z,87.2
2018-07-27T02:02:08.164Z,85.8
2018-07-27T02:07:08.183Z,85.9
2018-07-27T02:12:19.890Z,86
2018-07-27T02:17:19.615Z,86.1
2018-07-27T02:22:19.628Z,86.4
2018-07-27T02:27:19.574Z,85.9
2018-07-27T02:32:19.602Z,85.7
2018-07-27T02:37:19.779Z,85.9
2018-07-27T02:42:19.845Z,86.4
2018-07-27T02:47:20.044Z,86.5
2018-07-27T02:52:19.782Z,86.6
2018-07-27T02:57:32.441Z,87
2018-07-27T03:02:32.174Z,87.3
2018-07-27T03:07:32.209Z,87.5
2018-07-27T03:12:35.141Z,88.8
2018-07-27T03:17:32.352Z,87.7
2018-07-27T03:22:32.278Z,87.9
2018-07-27T03:27:32.190Z,87.3
2018-07-27T03:32:32.188Z,87.4
2018-07-27T03:37:32.175Z,87.5
2018-07-27T03:42:43.879Z,88.1
2018-07-27T03:47:43.712Z,87.4
2018-07-27T03:52:43.715Z,87.7
2018-07-27T03:57:43.796Z,88.2
2018-07-27T04:02:43.610Z,88.8
2018-07-27T04:07:43.593Z,89.3
2018-07-27T04:12:43.805Z,86.9
2018-07-27T04:17:43.598Z,86.4
2018-07-27T04:22:43.714Z,87.9
2018-07-27T04:27:55.957Z,87.3
2018-07-27T04:32:55.984Z,85.4
2018-07-27T04:37:55.830Z,85.1
2018-07-27T04:42:55.896Z,82.8
2018-07-27T04:47:55.925Z,81.7
2018-07-27T04:52:55.699Z,80.5
2018-07-27T04:57:55.707Z,79
2018-07-27T05:02:56.018Z,78.5
2018-07-27T05:07:55.943Z,77
2018-07-27T05:13:09.158Z,76.9
2018-07-27T05:18:09.009Z,77.5
2018-07-27T05:23:08.895Z,75.3
2018-07-27T05:28:08.891Z,73.6
2018-07-27T05:33:09.114Z,74.8
2018-07-27T05:38:09.153Z,74.1
2018-07-27T05:43:09.078Z,73.7
2018-07-27T05:48:09.254Z,73.6
2018-07-27T05:53:08.959Z,73.3
2018-07-27T05:58:21.356Z,71.8
2018-07-27T06:03:20.992Z,70.6
2018-07-27T06:08:21.233Z,69.1
2018-07-27T06:13:21.084Z,69.1
2018-07-27T06:18:21.035Z,69.8
2018-07-27T06:23:21.234Z,68.6
2018-07-27T06:28:21.294Z,67.1
2018-07-27T06:33:23.553Z,65.8
2018-07-27T06:38:23.281Z,65.5
2018-07-27T06:43:36.835Z,63.2
2018-07-27T06:48:36.785Z,64.1
2018-07-27T06:53:36.522Z,63.5
2018-07-27T06:58:36.600Z,62.7
2018-07-27T07:03:37.051Z,63.3
2018-07-27T07:08:36.585Z,62.5
2018-07-27T07:13:36.575Z,60.6
2018-07-27T07:18:39.947Z,63.7
2018-07-27T07:23:39.670Z,61
2018-07-27T07:28:51.941Z,61.7
2018-07-27T07:33:51.937Z,61.5
2018-07-27T07:38:51.710Z,60.5
2018-07-27T07:43:51.910Z,61.3
2018-07-27T07:48:51.712Z,61.6
2018-07-27T07:53:51.713Z,61
2018-07-27T07:58:51.741Z,58.9
2018-07-27T08:03:54.707Z,60.1
2018-07-27T08:08:54.413Z,58.1
2018-07-27T08:14:05.218Z,58.7
2018-07-27T08:19:05.142Z,59.7
2018-07-27T08:24:04.988Z,59.3
2018-07-27T08:29:04.973Z,58.9
2018-07-27T08:34:04.911Z,56.4
2018-07-27T08:39:05.184Z,55.6
2018-07-27T08:44:05.110Z,57.1
2018-07-27T08:49:09.509Z,55.9
2018-07-27T08:54:09.162Z,53.8
2018-07-27T08:59:18.672Z,54.9
2018-07-27T09:04:18.662Z,52.6
2018-07-27T09:09:18.553Z,52.2
2018-07-27T09:14:18.408Z,51.5
2018-07-27T09:19:18.687Z,51.9
2018-07-27T09:24:18.685Z,52.3
2018-07-27T09:29:18.424Z,52.4
2018-07-27T09:34:21.153Z,51.3
2018-07-27T09:39:21.132Z,51.4
2018-07-27T09:44:31.421Z,53.4
2018-07-27T09:49:31.361Z,49.9
2018-07-27T09:54:31.151Z,50.5
2018-07-27T09:59:31.321Z,47.7
2018-07-27T10:04:31.552Z,46.3
2018-07-27T10:09:31.541Z,48
2018-07-27T10:14:31.325Z,45.7
2018-07-27T10:19:31.888Z,46.2
2018-07-27T10:24:31.630Z,44.7
2018-07-27T10:29:44.035Z,44.7
2018-07-27T10:34:43.761Z,44.2
2018-07-27T10:39:43.765Z,44.2
2018-07-27T10:44:43.785Z,42.6
2018-07-27T10:49:43.774Z,43.6
2018-07-27T10:54:44.000Z,43.9
2018-07-27T10:59:44.160Z,42.2
2018-07-27T11:04:47.033Z,40.7
2018-07-27T11:09:47.059Z,42
2018-07-27T11:14:58.919Z,41.8
2018-07-27T11:19:58.635Z,40
2018-07-27T11:24:58.645Z,40.6
2018-07-27T11:29:58.661Z,40.7
2018-07-27T11:34:58.800Z,39.7
2018-07-27T11:39:58.656Z,39.7
2018-07-27T11:44:58.668Z,40.1
2018-07-27T11:50:00.650Z,40.2
2018-07-27T11:55:00.585Z,36.7
2018-07-27T12:00:10.882Z,36.7
2018-07-27T12:05:10.616Z,37.1
2018-07-27T12:10:10.844Z,39.8
2018-07-27T12:15:11.254Z,38.4
2018-07-27T12:20:10.629Z,40.1
2018-07-27T12:25:10.820Z,38.2
2018-07-27T12:30:10.735Z,39.3
2018-07-27T12:35:11.591Z,39.6
2018-07-27T12:40:11.304Z,39.5
2018-07-27T12:45:26.322Z,40.5
2018-07-27T12:50:26.057Z,40
2018-07-27T12:55:26.040Z,40.6
2018-07-27T13:00:26.129Z,40.7
2018-07-27T13:05:26.574Z,40.8
2018-07-27T13:10:26.159Z,41.2
2018-07-27T13:15:26.354Z,41.6
2018-07-27T13:20:29.895Z,39.8
2018-07-27T13:25:29.854Z,39.8
2018-07-27T13:30:42.212Z,42.1
2018-07-27T13:40:41.962Z,41.9
2018-07-27T13:45:42.065Z,40.3
2018-07-27T13:50:42.112Z,40.2
2018-07-27T13:55:41.945Z,39.3
2018-07-27T14:00:41.962Z,40.3
2018-07-27T14:05:43.782Z,40
2018-07-27T14:10:43.492Z,39.5
2018-07-27T14:15:55.936Z,40.2
2018-07-27T14:20:55.673Z,40
2018-07-27T14:25:55.616Z,40
2018-07-27T14:30:55.681Z,39
2018-07-27T14:35:55.774Z,38.5
2018-07-27T14:40:55.674Z,38.4
2018-07-27T14:45:57.036Z,39.4
2018-07-27T14:50:55.785Z,39.2
2018-07-27T14:55:56.013Z,39.2
2018-07-27T15:01:10.379Z,38.8
2018-07-27T15:06:10.298Z,38.4
2018-07-27T15:11:10.103Z,38.3
2018-07-27T15:16:10.225Z,38.4
2018-07-27T15:21:10.104Z,38.1
2018-07-27T15:26:10.319Z,37.4
2018-07-27T15:31:10.538Z,39.1
2018-07-27T15:36:16.121Z,40.7
2018-07-27T15:41:15.866Z,41
2018-07-27T15:46:26.515Z,42.2
2018-07-27T15:51:26.247Z,41.4
2018-07-27T15:56:26.245Z,42.7
2018-07-27T16:01:26.239Z,41.5
2018-07-27T16:06:26.236Z,42.6
2018-07-27T16:11:26.242Z,41.9
2018-07-27T16:16:26.461Z,42.5
2018-07-27T16:21:28.281Z,42
2018-07-27T16:26:28.015Z,42.6
2018-07-27T16:31:40.990Z,43.5
2018-07-27T16:36:40.948Z,43.2
2018-07-27T16:41:40.942Z,43.9
2018-07-27T16:46:40.723Z,44.1
2018-07-27T16:51:40.720Z,44.3
2018-07-27T16:56:40.941Z,44.3
2018-07-27T17:01:40.875Z,44.5
2018-07-27T17:06:41.263Z,46.6
2018-07-27T17:11:41.138Z,48.5
2018-07-27T17:16:53.160Z,48.3
2018-07-27T17:21:52.814Z,49.5
2018-07-27T17:26:53.016Z,49.8
2018-07-27T17:31:53.055Z,50.9
2018-07-27T17:36:52.892Z,51
2018-07-27T17:41:54.091Z,50.2
2018-07-27T17:46:54.303Z,50.3
2018-07-27T17:51:54.126Z,50.9
2018-07-27T17:56:54.232Z,52
2018-07-27T18:02:05.788Z,52.1
2018-07-27T18:07:05.931Z,51.8
2018-07-27T18:12:05.717Z,53.5
2018-07-27T18:17:05.554Z,52.1
2018-07-27T18:22:05.531Z,53.8
2018-07-27T18:27:05.511Z,54
2018-07-27T18:32:05.795Z,56.2
2018-07-27T18:37:05.989Z,57.8
2018-07-27T18:42:05.707Z,57.8
2018-07-27T18:47:18.287Z,57.6
2018-07-27T18:52:18.242Z,59
2018-07-27T18:57:18.027Z,60.7
2018-07-27T19:02:19.334Z,59.5
2018-07-27T19:07:18.365Z,59.9
2018-07-27T19:12:18.235Z,61.6
2018-07-27T19:17:18.031Z,61.4
2018-07-27T19:22:19.764Z,61.3
2018-07-27T19:27:19.122Z,61.5
2018-07-27T19:32:31.771Z,63.8
2018-07-27T19:37:31.548Z,63.7
2018-07-27T19:42:31.765Z,64.4
2018-07-27T19:47:31.676Z,64
2018-07-27T19:52:31.512Z,64.5
2018-07-27T19:57:31.521Z,64.4
2018-07-27T20:02:31.723Z,66
2018-07-27T20:07:33.022Z,65.7
2018-07-27T20:12:32.745Z,68.5
2018-07-27T20:17:44.673Z,67.6
2018-07-27T20:22:44.621Z,68.2
2018-07-27T20:27:44.524Z,68.8
2018-07-27T20:32:44.394Z,69.2
2018-07-27T20:37:44.634Z,69.4
2018-07-27T20:42:44.395Z,70
2018-07-27T20:47:44.385Z,70.8
2018-07-27T20:52:47.360Z,70.7
2018-07-27T20:57:47.085Z,69.9
2018-07-27T21:03:00.347Z,71
2018-07-27T21:08:00.121Z,71.5
2018-07-27T21:13:00.085Z,73.2
2018-07-27T21:18:00.078Z,72.3
2018-07-27T21:23:00.289Z,72.2
2018-07-27T21:28:00.324Z,72.5
2018-07-27T21:33:00.211Z,73.4
2018-07-27T21:38:01.431Z,73
2018-07-27T21:43:01.145Z,73
2018-07-27T21:48:16.483Z,73.5
2018-07-27T21:53:16.189Z,74.3
2018-07-27T21:58:16.407Z,74
2018-07-27T22:03:16.205Z,74.8
2018-07-27T22:08:16.325Z,74.9
2018-07-27T22:13:16.480Z,75.4
2018-07-27T22:18:16.272Z,75.4
2018-07-27T22:23:16.527Z,75.8
2018-07-27T22:28:16.322Z,75.6
2018-07-27T22:33:30.172Z,76.8
2018-07-27T22:38:30.188Z,75.9
2018-07-27T22:43:30.208Z,76.1
2018-07-27T22:48:30.064Z,78.4
2018-07-27T22:53:30.304Z,77.1
2018-07-27T22:58:30.459Z,77.4
2018-07-27T23:03:30.085Z,77.1
2018-07-27T23:08:30.137Z,78.8
2018-07-27T23:13:30.086Z,80
2018-07-27T23:18:42.431Z,77
2018-07-27T23:23:42.095Z,77.3
2018-07-27T23:28:42.273Z,77.9
2018-07-27T23:33:42.341Z,79.3
2018-07-27T23:38:42.369Z,78.2
2018-07-27T23:43:42.108Z,78.7
2018-07-27T23:48:42.153Z,79.3
2018-07-27T23:53:42.507Z,78.8
2018-07-27T23:58:42.244Z,80.6
